sensor_id;sensor_type;location;lat;lon;timestamp;P1;durP1;ratioP1;P2;durP2;ratioP2
74328;SDS011;62745;51.060;13.786;2023-05-10T00:01:53;3.20;;;1.55;;
74328;SDS011;62745;51.060;13.786;2023-05-10T00:04:19;4.50;;;1.80;;
74328;SDS011;62745;51.060;13.786;2023-05-10T00:06:44;4.82;;;1.83;;
74328;SDS011;62745;51.060;13.786;2023-05-10T00:09:09;5.50;;;1.73;;
74328;SDS011;62745;51.060;13.786;2023-05-10T00:11:35;5.53;;;1.80;;
74328;SDS011;62745;51.060;13.786;2023-05-10T00:14:00;4.00;;;1.57;;
74328;SDS011;62745;51.060;13.786;2023-05-10T00:16:25;3.13;;;1.53;;
74328;SDS011;62745;51.060;13.786;2023-05-10T00:18:50;5.73;;;1.70;;
74328;SDS011;62745;51.060;13.786;2023-05-10T00:21:16;3.40;;;1.40;;
74328;SDS011;62745;51.060;13.786;2023-05-10T00:23:41;3.83;;;1.67;;
74328;SDS011;62745;51.060;13.786;2023-05-10T00:26:06;4.13;;;1.60;;
74328;SDS011;62745;51.060;13.786;2023-05-10T00:28:31;4.33;;;1.60;;
74328;SDS011;62745;51.060;13.786;2023-05-10T00:30:57;3.97;;;1.40;;
74328;SDS011;62745;51.060;13.786;2023-05-10T00:33:22;4.10;;;1.70;;
74328;SDS011;62745;51.060;13.786;2023-05-10T00:35:47;4.17;;;2.07;;
74328;SDS011;62745;51.060;13.786;2023-05-10T00:38:12;4.20;;;1.50;;
74328;SDS011;62745;51.060;13.786;2023-05-10T00:40:38;4.10;;;1.77;;
74328;SDS011;62745;51.060;13.786;2023-05-10T00:43:03;3.38;;;1.65;;
74328;SDS011;62745;51.060;13.786;2023-05-10T00:45:29;3.77;;;1.83;;
74328;SDS011;62745;51.060;13.786;2023-05-10T00:47:57;3.70;;;1.83;;
74328;SDS011;62745;51.060;13.786;2023-05-10T00:50:23;3.90;;;1.85;;
74328;SDS011;62745;51.060;13.786;2023-05-10T00:52:48;6.75;;;1.70;;
74328;SDS011;62745;51.060;13.786;2023-05-10T00:55:14;4.32;;;1.63;;
74328;SDS011;62745;51.060;13.786;2023-05-10T00:57:39;3.60;;;1.52;;
74328;SDS011;62745;51.060;13.786;2023-05-10T01:00:05;3.53;;;1.70;;
74328;SDS011;62745;51.060;13.786;2023-05-10T01:02:31;4.07;;;1.58;;
74328;SDS011;62745;51.060;13.786;2023-05-10T01:04:57;2.88;;;1.33;;
74328;SDS011;62745;51.060;13.786;2023-05-10T01:07:23;4.13;;;1.58;;
74328;SDS011;62745;51.060;13.786;2023-05-10T01:09:49;5.27;;;1.70;;
74328;SDS011;62745;51.060;13.786;2023-05-10T01:12:14;3.10;;;1.43;;
74328;SDS011;62745;51.060;13.786;2023-05-10T01:14:40;3.30;;;1.48;;
74328;SDS011;62745;51.060;13.786;2023-05-10T01:17:05;2.80;;;1.40;;
74328;SDS011;62745;51.060;13.786;2023-05-10T01:19:31;3.15;;;1.48;;
74328;SDS011;62745;51.060;13.786;2023-05-10T01:24:51;3.65;;;1.40;;
74328;SDS011;62745;51.060;13.786;2023-05-10T01:27:53;2.97;;;1.50;;
74328;SDS011;62745;51.060;13.786;2023-05-10T01:39:11;5.45;;;1.70;;
74328;SDS011;62745;51.060;13.786;2023-05-10T01:41:54;2.85;;;1.33;;
74328;SDS011;62745;51.060;13.786;2023-05-10T01:44:39;3.60;;;1.60;;
74328;SDS011;62745;51.060;13.786;2023-05-10T01:47:12;3.78;;;1.40;;
74328;SDS011;62745;51.060;13.786;2023-05-10T01:49:41;4.72;;;1.52;;
74328;SDS011;62745;51.060;13.786;2023-05-10T01:52:15;3.90;;;1.60;;
74328;SDS011;62745;51.060;13.786;2023-05-10T01:54:50;3.97;;;1.42;;
74328;SDS011;62745;51.060;13.786;2023-05-10T01:57:20;4.40;;;1.83;;
74328;SDS011;62745;51.060;13.786;2023-05-10T02:02:16;3.80;;;1.48;;
74328;SDS011;62745;51.060;13.786;2023-05-10T02:04:43;3.45;;;1.38;;
74328;SDS011;62745;51.060;13.786;2023-05-10T02:07:10;3.75;;;1.92;;
74328;SDS011;62745;51.060;13.786;2023-05-10T02:09:36;3.45;;;1.77;;
74328;SDS011;62745;51.060;13.786;2023-05-10T02:12:03;5.38;;;1.67;;
74328;SDS011;62745;51.060;13.786;2023-05-10T02:14:30;3.30;;;1.42;;
74328;SDS011;62745;51.060;13.786;2023-05-10T02:16:59;3.42;;;1.50;;
74328;SDS011;62745;51.060;13.786;2023-05-10T02:19:27;3.35;;;1.42;;
74328;SDS011;62745;51.060;13.786;2023-05-10T02:21:55;4.82;;;1.58;;
74328;SDS011;62745;51.060;13.786;2023-05-10T02:24:21;5.13;;;1.58;;
74328;SDS011;62745;51.060;13.786;2023-05-10T02:26:47;3.95;;;1.63;;
74328;SDS011;62745;51.060;13.786;2023-05-10T02:29:14;4.20;;;1.70;;
74328;SDS011;62745;51.060;13.786;2023-05-10T02:31:41;4.32;;;1.67;;
74328;SDS011;62745;51.060;13.786;2023-05-10T02:34:08;3.22;;;1.60;;
74328;SDS011;62745;51.060;13.786;2023-05-10T02:36:35;3.70;;;1.45;;
74328;SDS011;62745;51.060;13.786;2023-05-10T02:39:02;4.18;;;1.73;;
74328;SDS011;62745;51.060;13.786;2023-05-10T02:41:27;3.58;;;1.58;;
74328;SDS011;62745;51.060;13.786;2023-05-10T02:43:56;2.97;;;1.50;;
74328;SDS011;62745;51.060;13.786;2023-05-10T02:46:24;3.78;;;1.40;;
74328;SDS011;62745;51.060;13.786;2023-05-10T02:48:50;3.67;;;1.50;;
74328;SDS011;62745;51.060;13.786;2023-05-10T02:51:15;5.27;;;1.87;;
74328;SDS011;62745;51.060;13.786;2023-05-10T02:53:43;5.53;;;1.92;;
74328;SDS011;62745;51.060;13.786;2023-05-10T02:56:12;5.30;;;1.67;;
74328;SDS011;62745;51.060;13.786;2023-05-10T02:58:42;4.50;;;1.85;;
74328;SDS011;62745;51.060;13.786;2023-05-10T03:01:07;5.60;;;2.00;;
74328;SDS011;62745;51.060;13.786;2023-05-10T03:03:33;3.08;;;1.55;;
74328;SDS011;62745;51.060;13.786;2023-05-10T03:05:58;3.60;;;1.58;;
74328;SDS011;62745;51.060;13.786;2023-05-10T03:08:23;5.72;;;1.88;;
74328;SDS011;62745;51.060;13.786;2023-05-10T03:13:44;3.80;;;1.80;;
74328;SDS011;62745;51.060;13.786;2023-05-10T03:16:22;4.22;;;1.60;;
74328;SDS011;62745;51.060;13.786;2023-05-10T03:18:56;3.85;;;1.40;;
74328;SDS011;62745;51.060;13.786;2023-05-10T03:21:35;3.50;;;1.55;;
74328;SDS011;62745;51.060;13.786;2023-05-10T03:24:07;4.28;;;2.13;;
74328;SDS011;62745;51.060;13.786;2023-05-10T03:26:36;3.42;;;1.70;;
74328;SDS011;62745;51.060;13.786;2023-05-10T03:29:02;8.35;;;1.90;;
74328;SDS011;62745;51.060;13.786;2023-05-10T03:31:29;5.10;;;1.63;;
74328;SDS011;62745;51.060;13.786;2023-05-10T03:33:55;3.08;;;1.45;;
74328;SDS011;62745;51.060;13.786;2023-05-10T03:36:20;4.05;;;1.63;;
74328;SDS011;62745;51.060;13.786;2023-05-10T03:38:45;4.70;;;1.80;;
74328;SDS011;62745;51.060;13.786;2023-05-10T03:41:11;4.77;;;1.53;;
74328;SDS011;62745;51.060;13.786;2023-05-10T03:43:36;4.50;;;1.73;;
74328;SDS011;62745;51.060;13.786;2023-05-10T03:46:02;5.40;;;1.67;;
74328;SDS011;62745;51.060;13.786;2023-05-10T03:48:28;3.53;;;1.70;;
74328;SDS011;62745;51.060;13.786;2023-05-10T03:50:53;4.47;;;1.60;;
74328;SDS011;62745;51.060;13.786;2023-05-10T03:53:18;4.70;;;1.40;;
74328;SDS011;62745;51.060;13.786;2023-05-10T03:55:44;3.03;;;1.60;;
74328;SDS011;62745;51.060;13.786;2023-05-10T03:58:12;2.78;;;1.35;;
74328;SDS011;62745;51.060;13.786;2023-05-10T04:00:38;4.80;;;1.65;;
74328;SDS011;62745;51.060;13.786;2023-05-10T04:03:08;5.50;;;1.50;;
74328;SDS011;62745;51.060;13.786;2023-05-10T04:05:34;5.93;;;1.80;;
74328;SDS011;62745;51.060;13.786;2023-05-10T04:07:59;3.65;;;1.52;;
74328;SDS011;62745;51.060;13.786;2023-05-10T04:10:25;3.40;;;1.23;;
74328;SDS011;62745;51.060;13.786;2023-05-10T04:12:50;3.43;;;1.53;;
74328;SDS011;62745;51.060;13.786;2023-05-10T04:15:15;3.50;;;1.60;;
74328;SDS011;62745;51.060;13.786;2023-05-10T04:17:41;3.47;;;1.65;;
74328;SDS011;62745;51.060;13.786;2023-05-10T04:20:06;6.80;;;1.80;;
74328;SDS011;62745;51.060;13.786;2023-05-10T04:22:32;3.60;;;1.48;;
74328;SDS011;62745;51.060;13.786;2023-05-10T04:24:57;4.43;;;1.48;;
74328;SDS011;62745;51.060;13.786;2023-05-10T04:27:23;3.40;;;1.50;;
74328;SDS011;62745;51.060;13.786;2023-05-10T04:29:48;3.33;;;1.50;;
74328;SDS011;62745;51.060;13.786;2023-05-10T04:32:13;4.07;;;1.80;;
74328;SDS011;62745;51.060;13.786;2023-05-10T04:34:38;4.33;;;1.40;;
74328;SDS011;62745;51.060;13.786;2023-05-10T04:37:04;4.13;;;1.50;;
74328;SDS011;62745;51.060;13.786;2023-05-10T04:39:29;5.13;;;1.75;;
74328;SDS011;62745;51.060;13.786;2023-05-10T04:41:54;4.20;;;1.50;;
74328;SDS011;62745;51.060;13.786;2023-05-10T04:44:19;3.87;;;1.60;;
74328;SDS011;62745;51.060;13.786;2023-05-10T04:46:45;3.53;;;1.50;;
74328;SDS011;62745;51.060;13.786;2023-05-10T04:49:10;4.73;;;1.70;;
74328;SDS011;62745;51.060;13.786;2023-05-10T04:51:35;6.85;;;1.90;;
74328;SDS011;62745;51.060;13.786;2023-05-10T04:54:00;3.53;;;1.70;;
74328;SDS011;62745;51.060;13.786;2023-05-10T04:56:26;3.53;;;1.63;;
74328;SDS011;62745;51.060;13.786;2023-05-10T04:58:51;5.77;;;1.67;;
74328;SDS011;62745;51.060;13.786;2023-05-10T05:01:16;4.37;;;1.80;;
74328;SDS011;62745;51.060;13.786;2023-05-10T05:03:42;4.00;;;1.80;;
74328;SDS011;62745;51.060;13.786;2023-05-10T05:06:07;4.93;;;1.60;;
74328;SDS011;62745;51.060;13.786;2023-05-10T05:08:32;5.17;;;1.50;;
74328;SDS011;62745;51.060;13.786;2023-05-10T05:10:57;3.73;;;1.70;;
74328;SDS011;62745;51.060;13.786;2023-05-10T05:13:24;14.77;;;2.88;;
74328;SDS011;62745;51.060;13.786;2023-05-10T05:15:49;10.85;;;2.40;;
74328;SDS011;62745;51.060;13.786;2023-05-10T05:18:14;10.07;;;2.40;;
74328;SDS011;62745;51.060;13.786;2023-05-10T05:20:40;4.77;;;2.17;;
74328;SDS011;62745;51.060;13.786;2023-05-10T05:23:05;6.60;;;2.38;;
74328;SDS011;62745;51.060;13.786;2023-05-10T05:25:30;10.73;;;2.28;;
74328;SDS011;62745;51.060;13.786;2023-05-10T05:27:56;8.43;;;2.03;;
74328;SDS011;62745;51.060;13.786;2023-05-10T05:30:21;7.00;;;1.80;;
74328;SDS011;62745;51.060;13.786;2023-05-10T05:32:46;8.33;;;2.00;;
74328;SDS011;62745;51.060;13.786;2023-05-10T05:35:12;6.00;;;1.80;;
74328;SDS011;62745;51.060;13.786;2023-05-10T05:37:37;8.55;;;2.55;;
74328;SDS011;62745;51.060;13.786;2023-05-10T05:40:03;5.38;;;1.50;;
74328;SDS011;62745;51.060;13.786;2023-05-10T05:42:29;5.78;;;1.90;;
74328;SDS011;62745;51.060;13.786;2023-05-10T05:44:56;6.18;;;1.70;;
74328;SDS011;62745;51.060;13.786;2023-05-10T05:47:22;8.75;;;1.73;;
74328;SDS011;62745;51.060;13.786;2023-05-10T05:49:47;4.03;;;1.60;;
74328;SDS011;62745;51.060;13.786;2023-05-10T05:52:12;3.37;;;1.53;;
74328;SDS011;62745;51.060;13.786;2023-05-10T05:54:38;5.07;;;1.70;;
74328;SDS011;62745;51.060;13.786;2023-05-10T05:57:03;4.60;;;1.63;;
74328;SDS011;62745;51.060;13.786;2023-05-10T05:59:29;8.63;;;1.52;;
74328;SDS011;62745;51.060;13.786;2023-05-10T06:01:54;3.45;;;1.60;;
74328;SDS011;62745;51.060;13.786;2023-05-10T06:04:19;4.47;;;1.50;;
74328;SDS011;62745;51.060;13.786;2023-05-10T06:06:45;3.90;;;1.70;;
74328;SDS011;62745;51.060;13.786;2023-05-10T06:09:11;5.55;;;1.50;;
74328;SDS011;62745;51.060;13.786;2023-05-10T06:11:37;4.22;;;1.70;;
74328;SDS011;62745;51.060;13.786;2023-05-10T06:14:03;5.22;;;1.80;;
74328;SDS011;62745;51.060;13.786;2023-05-10T06:18:58;4.28;;;1.80;;
74328;SDS011;62745;51.060;13.786;2023-05-10T06:21:23;4.80;;;1.60;;
74328;SDS011;62745;51.060;13.786;2023-05-10T06:23:49;6.20;;;1.50;;
74328;SDS011;62745;51.060;13.786;2023-05-10T06:26:14;3.53;;;1.50;;
74328;SDS011;62745;51.060;13.786;2023-05-10T06:28:39;4.20;;;1.57;;
74328;SDS011;62745;51.060;13.786;2023-05-10T06:31:05;3.58;;;1.60;;
74328;SDS011;62745;51.060;13.786;2023-05-10T06:33:31;4.22;;;1.42;;
74328;SDS011;62745;51.060;13.786;2023-05-10T06:35:56;4.13;;;1.70;;
74328;SDS011;62745;51.060;13.786;2023-05-10T06:38:22;5.78;;;1.75;;
74328;SDS011;62745;51.060;13.786;2023-05-10T06:40:47;4.22;;;1.77;;
74328;SDS011;62745;51.060;13.786;2023-05-10T06:43:12;4.70;;;1.53;;
74328;SDS011;62745;51.060;13.786;2023-05-10T06:45:38;3.30;;;1.42;;
74328;SDS011;62745;51.060;13.786;2023-05-10T06:48:03;4.27;;;1.50;;
74328;SDS011;62745;51.060;13.786;2023-05-10T06:50:28;3.30;;;1.55;;
74328;SDS011;62745;51.060;13.786;2023-05-10T06:52:54;4.13;;;1.43;;
74328;SDS011;62745;51.060;13.786;2023-05-10T06:55:21;4.30;;;1.48;;
74328;SDS011;62745;51.060;13.786;2023-05-10T06:57:46;3.30;;;1.50;;
74328;SDS011;62745;51.060;13.786;2023-05-10T07:00:12;4.22;;;1.63;;
74328;SDS011;62745;51.060;13.786;2023-05-10T07:02:38;6.38;;;1.77;;
74328;SDS011;62745;51.060;13.786;2023-05-10T07:05:04;3.93;;;1.83;;
74328;SDS011;62745;51.060;13.786;2023-05-10T07:07:29;3.35;;;1.52;;
74328;SDS011;62745;51.060;13.786;2023-05-10T07:09:54;3.20;;;1.50;;
74328;SDS011;62745;51.060;13.786;2023-05-10T07:12:21;6.43;;;1.88;;
74328;SDS011;62745;51.060;13.786;2023-05-10T07:14:46;4.07;;;1.70;;
74328;SDS011;62745;51.060;13.786;2023-05-10T07:17:12;4.40;;;1.60;;
74328;SDS011;62745;51.060;13.786;2023-05-10T07:19:37;4.60;;;1.60;;
74328;SDS011;62745;51.060;13.786;2023-05-10T07:22:02;3.63;;;1.63;;
74328;SDS011;62745;51.060;13.786;2023-05-10T07:24:28;3.60;;;1.50;;
74328;SDS011;62745;51.060;13.786;2023-05-10T07:26:53;3.67;;;1.47;;
74328;SDS011;62745;51.060;13.786;2023-05-10T07:29:18;9.73;;;2.13;;
74328;SDS011;62745;51.060;13.786;2023-05-10T07:31:43;4.67;;;1.77;;
74328;SDS011;62745;51.060;13.786;2023-05-10T07:34:09;6.40;;;1.60;;
74328;SDS011;62745;51.060;13.786;2023-05-10T07:36:34;4.40;;;1.80;;
74328;SDS011;62745;51.060;13.786;2023-05-10T07:39:00;3.20;;;1.52;;
74328;SDS011;62745;51.060;13.786;2023-05-10T07:41:26;3.40;;;1.48;;
74328;SDS011;62745;51.060;13.786;2023-05-10T07:43:52;3.63;;;1.80;;
74328;SDS011;62745;51.060;13.786;2023-05-10T07:46:17;4.90;;;1.73;;
74328;SDS011;62745;51.060;13.786;2023-05-10T07:48:44;4.55;;;1.63;;
74328;SDS011;62745;51.060;13.786;2023-05-10T07:51:09;3.73;;;1.80;;
74328;SDS011;62745;51.060;13.786;2023-05-10T07:53:35;6.50;;;1.90;;
74328;SDS011;62745;51.060;13.786;2023-05-10T07:56:19;5.28;;;2.25;;
74328;SDS011;62745;51.060;13.786;2023-05-10T07:58:50;6.63;;;1.92;;
74328;SDS011;62745;51.060;13.786;2023-05-10T08:01:15;4.05;;;1.65;;
74328;SDS011;62745;51.060;13.786;2023-05-10T08:03:41;5.27;;;2.00;;
74328;SDS011;62745;51.060;13.786;2023-05-10T08:06:06;3.93;;;1.80;;
74328;SDS011;62745;51.060;13.786;2023-05-10T08:08:31;4.30;;;2.03;;
74328;SDS011;62745;51.060;13.786;2023-05-10T08:10:56;3.90;;;1.77;;
74328;SDS011;62745;51.060;13.786;2023-05-10T08:13:22;3.47;;;1.90;;
74328;SDS011;62745;51.060;13.786;2023-05-10T08:15:47;7.70;;;2.10;;
74328;SDS011;62745;51.060;13.786;2023-05-10T08:18:12;5.07;;;2.03;;
74328;SDS011;62745;51.060;13.786;2023-05-10T08:20:38;6.75;;;1.85;;
74328;SDS011;62745;51.060;13.786;2023-05-10T08:23:03;4.13;;;1.93;;
74328;SDS011;62745;51.060;13.786;2023-05-10T08:25:28;3.63;;;1.80;;
74328;SDS011;62745;51.060;13.786;2023-05-10T08:27:54;5.30;;;1.90;;
74328;SDS011;62745;51.060;13.786;2023-05-10T08:30:19;3.63;;;1.90;;
74328;SDS011;62745;51.060;13.786;2023-05-10T08:32:44;4.37;;;1.83;;
74328;SDS011;62745;51.060;13.786;2023-05-10T08:35:10;4.53;;;1.83;;
74328;SDS011;62745;51.060;13.786;2023-05-10T08:37:35;4.17;;;1.83;;
74328;SDS011;62745;51.060;13.786;2023-05-10T08:40:00;6.70;;;2.20;;
74328;SDS011;62745;51.060;13.786;2023-05-10T08:42:26;6.97;;;2.08;;
74328;SDS011;62745;51.060;13.786;2023-05-10T08:44:55;4.35;;;1.80;;
74328;SDS011;62745;51.060;13.786;2023-05-10T08:47:22;5.10;;;2.10;;
74328;SDS011;62745;51.060;13.786;2023-05-10T08:49:47;6.38;;;2.15;;
74328;SDS011;62745;51.060;13.786;2023-05-10T08:52:15;5.13;;;2.40;;
74328;SDS011;62745;51.060;13.786;2023-05-10T08:54:42;4.30;;;1.90;;
74328;SDS011;62745;51.060;13.786;2023-05-10T08:57:08;3.70;;;1.80;;
74328;SDS011;62745;51.060;13.786;2023-05-10T08:59:34;4.97;;;1.88;;
74328;SDS011;62745;51.060;13.786;2023-05-10T09:01:59;5.10;;;2.10;;
74328;SDS011;62745;51.060;13.786;2023-05-10T09:04:26;4.22;;;1.83;;
74328;SDS011;62745;51.060;13.786;2023-05-10T09:06:51;8.90;;;3.10;;
74328;SDS011;62745;51.060;13.786;2023-05-10T09:09:17;5.88;;;1.70;;
74328;SDS011;62745;51.060;13.786;2023-05-10T09:11:43;6.00;;;1.70;;
74328;SDS011;62745;51.060;13.786;2023-05-10T09:14:09;4.70;;;1.98;;
74328;SDS011;62745;51.060;13.786;2023-05-10T09:16:35;5.93;;;2.28;;
74328;SDS011;62745;51.060;13.786;2023-05-10T09:19:00;4.27;;;2.13;;
74328;SDS011;62745;51.060;13.786;2023-05-10T09:21:25;4.93;;;2.27;;
74328;SDS011;62745;51.060;13.786;2023-05-10T09:23:51;4.85;;;2.35;;
74328;SDS011;62745;51.060;13.786;2023-05-10T09:26:21;8.05;;;2.20;;
74328;SDS011;62745;51.060;13.786;2023-05-10T09:28:51;3.80;;;1.90;;
74328;SDS011;62745;51.060;13.786;2023-05-10T09:31:19;7.78;;;2.33;;
74328;SDS011;62745;51.060;13.786;2023-05-10T09:33:45;6.68;;;2.53;;
74328;SDS011;62745;51.060;13.786;2023-05-10T09:36:11;5.03;;;2.17;;
74328;SDS011;62745;51.060;13.786;2023-05-10T09:38:49;6.10;;;2.35;;
74328;SDS011;62745;51.060;13.786;2023-05-10T09:41:20;5.40;;;2.53;;
74328;SDS011;62745;51.060;13.786;2023-05-10T09:43:49;4.15;;;1.60;;
74328;SDS011;62745;51.060;13.786;2023-05-10T09:46:19;5.95;;;2.50;;
74328;SDS011;62745;51.060;13.786;2023-05-10T09:48:46;5.07;;;2.38;;
74328;SDS011;62745;51.060;13.786;2023-05-10T09:51:24;4.88;;;2.20;;
74328;SDS011;62745;51.060;13.786;2023-05-10T09:54:14;5.78;;;1.90;;
74328;SDS011;62745;51.060;13.786;2023-05-10T09:56:41;4.30;;;2.38;;
74328;SDS011;62745;51.060;13.786;2023-05-10T09:59:11;3.75;;;2.30;;
74328;SDS011;62745;51.060;13.786;2023-05-10T10:01:36;4.72;;;2.10;;
74328;SDS011;62745;51.060;13.786;2023-05-10T10:04:03;3.97;;;1.92;;
74328;SDS011;62745;51.060;13.786;2023-05-10T10:06:34;4.32;;;2.30;;
74328;SDS011;62745;51.060;13.786;2023-05-10T10:09:00;4.63;;;2.28;;
74328;SDS011;62745;51.060;13.786;2023-05-10T10:11:26;4.97;;;2.25;;
74328;SDS011;62745;51.060;13.786;2023-05-10T10:13:52;4.53;;;2.13;;
74328;SDS011;62745;51.060;13.786;2023-05-10T10:16:18;6.13;;;2.50;;
74328;SDS011;62745;51.060;13.786;2023-05-10T10:18:45;4.93;;;1.90;;
74328;SDS011;62745;51.060;13.786;2023-05-10T10:21:12;4.63;;;2.20;;
74328;SDS011;62745;51.060;13.786;2023-05-10T10:23:39;4.10;;;2.03;;
74328;SDS011;62745;51.060;13.786;2023-05-10T10:26:05;6.83;;;2.03;;
74328;SDS011;62745;51.060;13.786;2023-05-10T10:31:40;4.22;;;2.33;;
74328;SDS011;62745;51.060;13.786;2023-05-10T10:34:44;5.15;;;2.03;;
74328;SDS011;62745;51.060;13.786;2023-05-10T10:37:04;4.57;;;2.45;;
74328;SDS011;62745;51.060;13.786;2023-05-10T10:39:30;5.15;;;2.30;;
74328;SDS011;62745;51.060;13.786;2023-05-10T10:41:56;4.75;;;2.30;;
74328;SDS011;62745;51.060;13.786;2023-05-10T10:44:23;5.40;;;2.45;;
74328;SDS011;62745;51.060;13.786;2023-05-10T10:46:59;4.63;;;2.15;;
74328;SDS011;62745;51.060;13.786;2023-05-10T10:57:30;4.18;;;2.20;;
74328;SDS011;62745;51.060;13.786;2023-05-10T11:03:05;4.35;;;2.10;;
74328;SDS011;62745;51.060;13.786;2023-05-10T11:08:12;4.10;;;2.03;;
74328;SDS011;62745;51.060;13.786;2023-05-10T11:10:48;7.50;;;2.40;;
74328;SDS011;62745;51.060;13.786;2023-05-10T11:13:26;4.93;;;2.42;;
74328;SDS011;62745;51.060;13.786;2023-05-10T11:15:54;4.20;;;2.40;;
74328;SDS011;62745;51.060;13.786;2023-05-10T11:18:28;5.82;;;2.55;;
74328;SDS011;62745;51.060;13.786;2023-05-10T11:20:59;4.32;;;2.40;;
74328;SDS011;62745;51.060;13.786;2023-05-10T11:24:12;5.30;;;2.70;;
74328;SDS011;62745;51.060;13.786;2023-05-10T11:26:17;4.10;;;2.30;;
74328;SDS011;62745;51.060;13.786;2023-05-10T11:28:43;5.65;;;2.40;;
74328;SDS011;62745;51.060;13.786;2023-05-10T11:31:10;3.97;;;2.10;;
74328;SDS011;62745;51.060;13.786;2023-05-10T11:33:43;4.38;;;2.25;;
74328;SDS011;62745;51.060;13.786;2023-05-10T11:36:14;7.10;;;2.35;;
74328;SDS011;62745;51.060;13.786;2023-05-10T11:38:40;4.43;;;2.40;;
74328;SDS011;62745;51.060;13.786;2023-05-10T11:41:05;5.53;;;2.70;;
74328;SDS011;62745;51.060;13.786;2023-05-10T11:43:33;3.70;;;2.22;;
74328;SDS011;62745;51.060;13.786;2023-05-10T11:45:59;4.43;;;2.20;;
74328;SDS011;62745;51.060;13.786;2023-05-10T11:48:24;3.73;;;2.10;;
74328;SDS011;62745;51.060;13.786;2023-05-10T11:50:50;5.35;;;2.42;;
74328;SDS011;62745;51.060;13.786;2023-05-10T11:53:15;6.85;;;2.20;;
74328;SDS011;62745;51.060;13.786;2023-05-10T11:55:40;4.50;;;2.30;;
74328;SDS011;62745;51.060;13.786;2023-05-10T11:58:05;5.45;;;2.47;;
74328;SDS011;62745;51.060;13.786;2023-05-10T12:00:31;3.53;;;1.93;;
74328;SDS011;62745;51.060;13.786;2023-05-10T12:02:56;5.30;;;2.30;;
74328;SDS011;62745;51.060;13.786;2023-05-10T12:05:22;7.30;;;2.30;;
74328;SDS011;62745;51.060;13.786;2023-05-10T12:07:47;3.88;;;2.15;;
74328;SDS011;62745;51.060;13.786;2023-05-10T12:10:13;4.85;;;2.10;;
74328;SDS011;62745;51.060;13.786;2023-05-10T12:12:40;4.70;;;2.13;;
74328;SDS011;62745;51.060;13.786;2023-05-10T12:15:19;4.78;;;2.50;;
74328;SDS011;62745;51.060;13.786;2023-05-10T12:17:49;5.13;;;2.22;;
74328;SDS011;62745;51.060;13.786;2023-05-10T12:20:16;5.22;;;2.20;;
74328;SDS011;62745;51.060;13.786;2023-05-10T12:22:49;7.38;;;2.20;;
74328;SDS011;62745;51.060;13.786;2023-05-10T12:25:20;8.82;;;2.33;;
74328;SDS011;62745;51.060;13.786;2023-05-10T12:27:51;6.10;;;2.22;;
74328;SDS011;62745;51.060;13.786;2023-05-10T12:30:22;4.50;;;2.45;;
74328;SDS011;62745;51.060;13.786;2023-05-10T12:32:48;5.85;;;2.40;;
74328;SDS011;62745;51.060;13.786;2023-05-10T12:35:14;4.60;;;2.15;;
74328;SDS011;62745;51.060;13.786;2023-05-10T12:37:41;7.15;;;2.20;;
74328;SDS011;62745;51.060;13.786;2023-05-10T12:40:10;5.38;;;2.40;;
74328;SDS011;62745;51.060;13.786;2023-05-10T12:42:36;4.30;;;2.45;;
74328;SDS011;62745;51.060;13.786;2023-05-10T12:45:02;4.53;;;2.42;;
74328;SDS011;62745;51.060;13.786;2023-05-10T12:47:28;4.60;;;1.95;;
74328;SDS011;62745;51.060;13.786;2023-05-10T12:49:54;3.80;;;2.10;;
74328;SDS011;62745;51.060;13.786;2023-05-10T12:52:19;4.40;;;2.17;;
74328;SDS011;62745;51.060;13.786;2023-05-10T12:54:44;5.07;;;2.43;;
74328;SDS011;62745;51.060;13.786;2023-05-10T12:57:09;4.85;;;2.15;;
74328;SDS011;62745;51.060;13.786;2023-05-10T12:59:35;4.85;;;2.42;;
74328;SDS011;62745;51.060;13.786;2023-05-10T13:02:00;4.00;;;2.30;;
74328;SDS011;62745;51.060;13.786;2023-05-10T13:04:25;5.70;;;2.27;;
74328;SDS011;62745;51.060;13.786;2023-05-10T13:06:51;5.13;;;2.43;;
74328;SDS011;62745;51.060;13.786;2023-05-10T13:09:16;5.20;;;2.43;;
74328;SDS011;62745;51.060;13.786;2023-05-10T13:11:41;4.22;;;1.90;;
74328;SDS011;62745;51.060;13.786;2023-05-10T13:14:06;4.37;;;2.27;;
74328;SDS011;62745;51.060;13.786;2023-05-10T13:16:32;5.97;;;2.33;;
74328;SDS011;62745;51.060;13.786;2023-05-10T13:18:57;3.88;;;2.30;;
74328;SDS011;62745;51.060;13.786;2023-05-10T13:21:23;5.07;;;2.47;;
74328;SDS011;62745;51.060;13.786;2023-05-10T13:23:50;5.78;;;2.28;;
74328;SDS011;62745;51.060;13.786;2023-05-10T13:26:15;5.70;;;2.20;;
74328;SDS011;62745;51.060;13.786;2023-05-10T13:28:40;5.13;;;2.13;;
74328;SDS011;62745;51.060;13.786;2023-05-10T13:31:06;5.80;;;2.13;;
74328;SDS011;62745;51.060;13.786;2023-05-10T13:33:32;5.43;;;2.35;;
74328;SDS011;62745;51.060;13.786;2023-05-10T13:35:57;4.77;;;2.10;;
74328;SDS011;62745;51.060;13.786;2023-05-10T13:38:23;4.17;;;2.10;;
74328;SDS011;62745;51.060;13.786;2023-05-10T13:40:48;4.60;;;2.07;;
74328;SDS011;62745;51.060;13.786;2023-05-10T13:43:17;4.40;;;2.30;;
74328;SDS011;62745;51.060;13.786;2023-05-10T13:45:42;4.27;;;2.03;;
74328;SDS011;62745;51.060;13.786;2023-05-10T13:48:07;6.17;;;2.43;;
74328;SDS011;62745;51.060;13.786;2023-05-10T13:50:33;6.53;;;2.17;;
74328;SDS011;62745;51.060;13.786;2023-05-10T13:52:58;3.90;;;2.07;;
74328;SDS011;62745;51.060;13.786;2023-05-10T13:55:24;4.90;;;2.20;;
74328;SDS011;62745;51.060;13.786;2023-05-10T13:57:49;5.50;;;2.10;;
74328;SDS011;62745;51.060;13.786;2023-05-10T14:00:15;4.40;;;2.30;;
74328;SDS011;62745;51.060;13.786;2023-05-10T14:02:41;5.85;;;2.40;;
74328;SDS011;62745;51.060;13.786;2023-05-10T14:05:06;5.10;;;2.03;;
74328;SDS011;62745;51.060;13.786;2023-05-10T14:07:32;5.15;;;2.10;;
74328;SDS011;62745;51.060;13.786;2023-05-10T14:09:57;3.90;;;2.00;;
74328;SDS011;62745;51.060;13.786;2023-05-10T14:12:22;8.83;;;2.43;;
74328;SDS011;62745;51.060;13.786;2023-05-10T14:14:47;6.10;;;2.20;;
74328;SDS011;62745;51.060;13.786;2023-05-10T14:17:13;5.67;;;2.13;;
74328;SDS011;62745;51.060;13.786;2023-05-10T14:19:38;4.53;;;2.30;;
74328;SDS011;62745;51.060;13.786;2023-05-10T14:22:03;4.32;;;1.92;;
74328;SDS011;62745;51.060;13.786;2023-05-10T14:24:28;5.57;;;2.25;;
74328;SDS011;62745;51.060;13.786;2023-05-10T14:26:54;3.95;;;2.30;;
74328;SDS011;62745;51.060;13.786;2023-05-10T14:29:20;4.30;;;2.40;;
74328;SDS011;62745;51.060;13.786;2023-05-10T14:31:46;5.35;;;2.20;;
74328;SDS011;62745;51.060;13.786;2023-05-10T14:34:11;5.17;;;2.60;;
74328;SDS011;62745;51.060;13.786;2023-05-10T14:36:36;6.70;;;2.03;;
74328;SDS011;62745;51.060;13.786;2023-05-10T14:39:01;5.27;;;2.00;;
74328;SDS011;62745;51.060;13.786;2023-05-10T14:41:27;6.15;;;2.10;;
74328;SDS011;62745;51.060;13.786;2023-05-10T14:43:53;5.57;;;2.17;;
74328;SDS011;62745;51.060;13.786;2023-05-10T14:46:18;6.83;;;2.27;;
74328;SDS011;62745;51.060;13.786;2023-05-10T14:48:43;4.27;;;2.00;;
74328;SDS011;62745;51.060;13.786;2023-05-10T14:51:08;5.13;;;2.07;;
74328;SDS011;62745;51.060;13.786;2023-05-10T14:53:33;6.40;;;2.10;;
74328;SDS011;62745;51.060;13.786;2023-05-10T14:55:59;4.90;;;2.00;;
74328;SDS011;62745;51.060;13.786;2023-05-10T14:58:26;5.75;;;2.13;;
74328;SDS011;62745;51.060;13.786;2023-05-10T15:00:51;3.83;;;2.00;;
74328;SDS011;62745;51.060;13.786;2023-05-10T15:03:17;6.03;;;2.30;;
74328;SDS011;62745;51.060;13.786;2023-05-10T15:05:42;5.53;;;2.33;;
74328;SDS011;62745;51.060;13.786;2023-05-10T15:08:07;4.40;;;2.50;;